sensor_id;sensor_type;location;lat;lon;timestamp;P1;durP1;ratioP1;P2;durP2;ratioP2
20014;SDS011;61787;42.022;23.078;2023-03-23T00:00:22;13.07;;;9.53;;
20014;SDS011;61787;42.022;23.078;2023-03-23T00:01:23;13.27;;;9.03;;
20014;SDS011;61787;42.022;23.078;2023-03-23T00:02:27;9.60;;;7.67;;
20014;SDS011;61787;42.022;23.078;2023-03-23T00:03:28;12.23;;;8.63;;
20014;SDS011;61787;42.022;23.078;2023-03-23T00:04:31;12.53;;;8.90;;
20014;SDS011;61787;42.022;23.078;2023-03-23T00:05:32;12.70;;;8.77;;
20014;SDS011;61787;42.022;23.078;2023-03-23T00:06:32;11.20;;;8.53;;
20014;SDS011;61787;42.022;23.078;2023-03-23T00:07:34;14.13;;;8.53;;
20014;SDS011;61787;42.022;23.078;2023-03-23T00:08:37;11.67;;;7.23;;
20014;SDS011;61787;42.022;23.078;2023-03-23T00:09:45;10.03;;;7.43;;
20014;SDS011;61787;42.022;23.078;2023-03-23T00:10:50;12.17;;;7.23;;
20014;SDS011;61787;42.022;23.078;2023-03-23T00:11:56;7.77;;;5.70;;
20014;SDS011;61787;42.022;23.078;2023-03-23T00:13:05;7.83;;;5.97;;
20014;SDS011;61787;42.022;23.078;2023-03-23T00:14:05;7.53;;;5.20;;
20014;SDS011;61787;42.022;23.078;2023-03-23T00:15:12;6.53;;;5.37;;
20014;SDS011;61787;42.022;23.078;2023-03-23T00:16:16;7.60;;;5.40;;
20014;SDS011;61787;42.022;23.078;2023-03-23T00:17:18;6.27;;;5.13;;
20014;SDS011;61787;42.022;23.078;2023-03-23T00:18:19;8.90;;;5.20;;
20014;SDS011;61787;42.022;23.078;2023-03-23T00:19:23;6.47;;;5.10;;
20014;SDS011;61787;42.022;23.078;2023-03-23T00:20:23;8.30;;;5.60;;
20014;SDS011;61787;42.022;23.078;2023-03-23T00:21:25;7.77;;;5.20;;
20014;SDS011;61787;42.022;23.078;2023-03-23T00:24:48;7.60;;;5.10;;
20014;SDS011;61787;42.022;23.078;2023-03-23T00:25:51;8.60;;;5.13;;
20014;SDS011;61787;42.022;23.078;2023-03-23T00:26:53;6.60;;;5.10;;
20014;SDS011;61787;42.022;23.078;2023-03-23T00:27:53;6.53;;;5.27;;
20014;SDS011;61787;42.022;23.078;2023-03-23T00:28:54;7.27;;;5.40;;
20014;SDS011;61787;42.022;23.078;2023-03-23T00:29:54;8.17;;;6.17;;
20014;SDS011;61787;42.022;23.078;2023-03-23T00:30:56;7.83;;;6.00;;
20014;SDS011;61787;42.022;23.078;2023-03-23T00:32:01;8.53;;;6.00;;
20014;SDS011;61787;42.022;23.078;2023-03-23T00:33:02;9.83;;;5.80;;
20014;SDS011;61787;42.022;23.078;2023-03-23T00:34:03;9.83;;;5.87;;
20014;SDS011;61787;42.022;23.078;2023-03-23T00:35:04;8.33;;;5.47;;
20014;SDS011;61787;42.022;23.078;2023-03-23T00:36:07;8.37;;;4.97;;
20014;SDS011;61787;42.022;23.078;2023-03-23T00:37:08;7.93;;;5.80;;
20014;SDS011;61787;42.022;23.078;2023-03-23T00:38:10;8.73;;;6.47;;
20014;SDS011;61787;42.022;23.078;2023-03-23T00:39:10;8.70;;;6.13;;
20014;SDS011;61787;42.022;23.078;2023-03-23T00:40:11;10.17;;;6.90;;
20014;SDS011;61787;42.022;23.078;2023-03-23T00:41:12;9.13;;;6.40;;
20014;SDS011;61787;42.022;23.078;2023-03-23T00:42:15;8.47;;;5.93;;
20014;SDS011;61787;42.022;23.078;2023-03-23T00:43:17;7.13;;;4.90;;
20014;SDS011;61787;42.022;23.078;2023-03-23T00:44:19;7.00;;;4.87;;
20014;SDS011;61787;42.022;23.078;2023-03-23T00:45:23;7.70;;;4.50;;
20014;SDS011;61787;42.022;23.078;2023-03-23T00:46:24;5.50;;;4.10;;
20014;SDS011;61787;42.022;23.078;2023-03-23T00:47:24;4.83;;;3.90;;
20014;SDS011;61787;42.022;23.078;2023-03-23T00:48:25;6.30;;;4.17;;
20014;SDS011;61787;42.022;23.078;2023-03-23T00:49:25;6.50;;;4.10;;
20014;SDS011;61787;42.022;23.078;2023-03-23T00:50:26;7.13;;;4.23;;
20014;SDS011;61787;42.022;23.078;2023-03-23T00:51:27;6.40;;;4.60;;
20014;SDS011;61787;42.022;23.078;2023-03-23T00:52:27;4.57;;;4.03;;
20014;SDS011;61787;42.022;23.078;2023-03-23T00:53:28;4.70;;;4.20;;
20014;SDS011;61787;42.022;23.078;2023-03-23T00:54:28;5.07;;;4.20;;
20014;SDS011;61787;42.022;23.078;2023-03-23T00:55:29;4.27;;;3.87;;
20014;SDS011;61787;42.022;23.078;2023-03-23T00:56:30;5.10;;;4.60;;
20014;SDS011;61787;42.022;23.078;2023-03-23T00:57:31;4.33;;;3.93;;
20014;SDS011;61787;42.022;23.078;2023-03-23T00:58:31;6.00;;;4.40;;
20014;SDS011;61787;42.022;23.078;2023-03-23T00:59:32;5.10;;;4.33;;
20014;SDS011;61787;42.022;23.078;2023-03-23T01:00:32;5.50;;;4.60;;
20014;SDS011;61787;42.022;23.078;2023-03-23T01:01:33;4.93;;;4.00;;
20014;SDS011;61787;42.022;23.078;2023-03-23T01:02:35;6.90;;;4.80;;
20014;SDS011;61787;42.022;23.078;2023-03-23T01:03:36;6.20;;;4.60;;
20014;SDS011;61787;42.022;23.078;2023-03-23T01:04:38;7.93;;;4.67;;
20014;SDS011;61787;42.022;23.078;2023-03-23T01:05:39;5.27;;;4.33;;
20014;SDS011;61787;42.022;23.078;2023-03-23T01:06:41;5.20;;;4.30;;
20014;SDS011;61787;42.022;23.078;2023-03-23T01:07:43;5.20;;;3.97;;
20014;SDS011;61787;42.022;23.078;2023-03-23T01:08:44;6.70;;;4.53;;
20014;SDS011;61787;42.022;23.078;2023-03-23T01:09:48;5.90;;;4.73;;
20014;SDS011;61787;42.022;23.078;2023-03-23T01:10:49;6.47;;;4.80;;
20014;SDS011;61787;42.022;23.078;2023-03-23T01:11:50;6.70;;;4.40;;
20014;SDS011;61787;42.022;23.078;2023-03-23T01:12:51;6.63;;;4.87;;
20014;SDS011;61787;42.022;23.078;2023-03-23T01:13:52;5.93;;;5.33;;
20014;SDS011;61787;42.022;23.078;2023-03-23T01:14:53;7.40;;;5.40;;
20014;SDS011;61787;42.022;23.078;2023-03-23T01:15:53;8.20;;;6.00;;
20014;SDS011;61787;42.022;23.078;2023-03-23T01:16:53;9.23;;;6.07;;
20014;SDS011;61787;42.022;23.078;2023-03-23T01:17:54;8.83;;;6.73;;
20014;SDS011;61787;42.022;23.078;2023-03-23T01:18:55;9.47;;;6.97;;
20014;SDS011;61787;42.022;23.078;2023-03-23T01:19:56;8.97;;;6.97;;
20014;SDS011;61787;42.022;23.078;2023-03-23T01:20:56;12.00;;;6.70;;
20014;SDS011;61787;42.022;23.078;2023-03-23T01:21:57;9.70;;;6.90;;
20014;SDS011;61787;42.022;23.078;2023-03-23T01:22:58;7.83;;;6.80;;
20014;SDS011;61787;42.022;23.078;2023-03-23T01:24:00;9.77;;;7.00;;
20014;SDS011;61787;42.022;23.078;2023-03-23T01:25:01;11.57;;;7.80;;
20014;SDS011;61787;42.022;23.078;2023-03-23T01:26:08;10.03;;;7.70;;
20014;SDS011;61787;42.022;23.078;2023-03-23T01:27:11;8.90;;;7.43;;
20014;SDS011;61787;42.022;23.078;2023-03-23T01:28:12;7.43;;;6.43;;
20014;SDS011;61787;42.022;23.078;2023-03-23T01:29:12;11.03;;;8.20;;
20014;SDS011;61787;42.022;23.078;2023-03-23T01:30:13;10.97;;;8.80;;
20014;SDS011;61787;42.022;23.078;2023-03-23T01:31:16;10.67;;;8.10;;
20014;SDS011;61787;42.022;23.078;2023-03-23T01:32:21;11.77;;;8.07;;
20014;SDS011;61787;42.022;23.078;2023-03-23T01:33:21;8.97;;;6.97;;
20014;SDS011;61787;42.022;23.078;2023-03-23T01:34:22;6.83;;;6.07;;
20014;SDS011;61787;42.022;23.078;2023-03-23T01:35:22;7.67;;;5.60;;
20014;SDS011;61787;42.022;23.078;2023-03-23T01:36:24;7.53;;;6.00;;
20014;SDS011;61787;42.022;23.078;2023-03-23T01:37:29;7.40;;;5.43;;
20014;SDS011;61787;42.022;23.078;2023-03-23T01:38:30;7.13;;;5.07;;
20014;SDS011;61787;42.022;23.078;2023-03-23T01:39:31;7.37;;;5.00;;
20014;SDS011;61787;42.022;23.078;2023-03-23T01:40:31;6.20;;;5.23;;
20014;SDS011;61787;42.022;23.078;2023-03-23T01:41:32;7.83;;;5.53;;
20014;SDS011;61787;42.022;23.078;2023-03-23T01:42:35;7.37;;;5.30;;
20014;SDS011;61787;42.022;23.078;2023-03-23T01:43:52;6.03;;;5.10;;
20014;SDS011;61787;42.022;23.078;2023-03-23T01:46:19;8.67;;;6.07;;
20014;SDS011;61787;42.022;23.078;2023-03-23T01:47:22;10.90;;;7.63;;
20014;SDS011;61787;42.022;23.078;2023-03-23T01:48:27;13.13;;;9.07;;
20014;SDS011;61787;42.022;23.078;2023-03-23T01:49:40;9.37;;;7.70;;
20014;SDS011;61787;42.022;23.078;2023-03-23T01:50:52;7.90;;;6.40;;
20014;SDS011;61787;42.022;23.078;2023-03-23T01:52:11;11.27;;;8.80;;
20014;SDS011;61787;42.022;23.078;2023-03-23T01:53:17;10.13;;;8.27;;
20014;SDS011;61787;42.022;23.078;2023-03-23T01:54:18;12.50;;;8.13;;
20014;SDS011;61787;42.022;23.078;2023-03-23T01:55:21;10.43;;;7.20;;
20014;SDS011;61787;42.022;23.078;2023-03-23T01:56:25;8.30;;;6.87;;
20014;SDS011;61787;42.022;23.078;2023-03-23T01:57:29;7.43;;;5.97;;
20014;SDS011;61787;42.022;23.078;2023-03-23T01:58:31;8.17;;;5.90;;
20014;SDS011;61787;42.022;23.078;2023-03-23T01:59:34;9.30;;;5.97;;
20014;SDS011;61787;42.022;23.078;2023-03-23T02:00:35;8.17;;;6.73;;
20014;SDS011;61787;42.022;23.078;2023-03-23T02:01:40;8.57;;;6.73;;
20014;SDS011;61787;42.022;23.078;2023-03-23T02:02:45;11.87;;;8.10;;
20014;SDS011;61787;42.022;23.078;2023-03-23T02:03:48;13.10;;;9.43;;
20014;SDS011;61787;42.022;23.078;2023-03-23T02:04:49;9.37;;;7.80;;
20014;SDS011;61787;42.022;23.078;2023-03-23T02:05:49;9.23;;;6.67;;
20014;SDS011;61787;42.022;23.078;2023-03-23T02:06:51;8.73;;;7.80;;
20014;SDS011;61787;42.022;23.078;2023-03-23T02:07:52;14.03;;;10.47;;
20014;SDS011;61787;42.022;23.078;2023-03-23T02:08:54;15.13;;;11.17;;
20014;SDS011;61787;42.022;23.078;2023-03-23T02:09:55;16.83;;;11.80;;
20014;SDS011;61787;42.022;23.078;2023-03-23T02:10:55;17.10;;;11.60;;
20014;SDS011;61787;42.022;23.078;2023-03-23T02:11:56;14.07;;;10.97;;
20014;SDS011;61787;42.022;23.078;2023-03-23T02:12:57;13.83;;;10.80;;
20014;SDS011;61787;42.022;23.078;2023-03-23T02:14:00;15.20;;;11.10;;
20014;SDS011;61787;42.022;23.078;2023-03-23T02:15:03;15.23;;;10.57;;
20014;SDS011;61787;42.022;23.078;2023-03-23T02:16:16;12.00;;;9.40;;
20014;SDS011;61787;42.022;23.078;2023-03-23T02:24:06;10.03;;;7.77;;
20014;SDS011;61787;42.022;23.078;2023-03-23T02:31:05;12.10;;;9.03;;
20014;SDS011;61787;42.022;23.078;2023-03-23T02:32:21;13.37;;;8.90;;
20014;SDS011;61787;42.022;23.078;2023-03-23T02:34:42;10.87;;;7.57;;
20014;SDS011;61787;42.022;23.078;2023-03-23T02:37:06;8.27;;;6.57;;
20014;SDS011;61787;42.022;23.078;2023-03-23T02:38:14;10.13;;;7.73;;
20014;SDS011;61787;42.022;23.078;2023-03-23T02:39:20;10.03;;;7.70;;
20014;SDS011;61787;42.022;23.078;2023-03-23T02:40:24;10.07;;;6.87;;
20014;SDS011;61787;42.022;23.078;2023-03-23T02:41:31;10.33;;;7.40;;
20014;SDS011;61787;42.022;23.078;2023-03-23T02:42:36;8.90;;;7.03;;
20014;SDS011;61787;42.022;23.078;2023-03-23T02:43:40;9.90;;;7.10;;
20014;SDS011;61787;42.022;23.078;2023-03-23T02:44:44;7.33;;;6.20;;
20014;SDS011;61787;42.022;23.078;2023-03-23T02:45:46;7.33;;;5.70;;
20014;SDS011;61787;42.022;23.078;2023-03-23T02:46:48;7.93;;;6.17;;
20014;SDS011;61787;42.022;23.078;2023-03-23T02:47:51;7.07;;;6.03;;
20014;SDS011;61787;42.022;23.078;2023-03-23T02:48:53;7.60;;;5.73;;
20014;SDS011;61787;42.022;23.078;2023-03-23T02:49:56;8.63;;;6.07;;
20014;SDS011;61787;42.022;23.078;2023-03-23T02:50:59;7.53;;;6.00;;
20014;SDS011;61787;42.022;23.078;2023-03-23T02:52:02;9.20;;;5.57;;
20014;SDS011;61787;42.022;23.078;2023-03-23T02:53:07;7.37;;;6.20;;
20014;SDS011;61787;42.022;23.078;2023-03-23T02:54:10;6.10;;;5.50;;
20014;SDS011;61787;42.022;23.078;2023-03-23T02:55:12;6.93;;;5.33;;
20014;SDS011;61787;42.022;23.078;2023-03-23T02:56:14;8.70;;;7.00;;
20014;SDS011;61787;42.022;23.078;2023-03-23T02:57:14;9.23;;;7.00;;
20014;SDS011;61787;42.022;23.078;2023-03-23T02:58:16;11.13;;;8.07;;
20014;SDS011;61787;42.022;23.078;2023-03-23T02:59:16;10.57;;;7.07;;
20014;SDS011;61787;42.022;23.078;2023-03-23T03:00:17;9.80;;;7.07;;
20014;SDS011;61787;42.022;23.078;2023-03-23T03:02:39;11.20;;;7.57;;
20014;SDS011;61787;42.022;23.078;2023-03-23T03:03:42;8.77;;;6.97;;
20014;SDS011;61787;42.022;23.078;2023-03-23T03:05:03;10.90;;;7.43;;
20014;SDS011;61787;42.022;23.078;2023-03-23T03:06:30;8.43;;;6.67;;
20014;SDS011;61787;42.022;23.078;2023-03-23T03:07:42;7.87;;;6.67;;
20014;SDS011;61787;42.022;23.078;2023-03-23T03:08:50;10.13;;;6.27;;
20014;SDS011;61787;42.022;23.078;2023-03-23T03:11:06;12.57;;;7.90;;
20014;SDS011;61787;42.022;23.078;2023-03-23T03:12:12;8.10;;;6.67;;
20014;SDS011;61787;42.022;23.078;2023-03-23T03:15:12;9.83;;;7.27;;
20014;SDS011;61787;42.022;23.078;2023-03-23T03:16:24;10.73;;;7.93;;
20014;SDS011;61787;42.022;23.078;2023-03-23T03:17:30;11.03;;;8.33;;
20014;SDS011;61787;42.022;23.078;2023-03-23T03:20:03;10.43;;;7.63;;
20014;SDS011;61787;42.022;23.078;2023-03-23T03:21:12;13.00;;;9.50;;
20014;SDS011;61787;42.022;23.078;2023-03-23T03:22:14;12.23;;;9.67;;
20014;SDS011;61787;42.022;23.078;2023-03-23T03:23:16;11.67;;;9.17;;
20014;SDS011;61787;42.022;23.078;2023-03-23T03:24:21;12.47;;;8.90;;
20014;SDS011;61787;42.022;23.078;2023-03-23T03:25:22;12.73;;;8.43;;
20014;SDS011;61787;42.022;23.078;2023-03-23T03:26:24;12.60;;;8.63;;
20014;SDS011;61787;42.022;23.078;2023-03-23T03:27:29;11.50;;;8.87;;
20014;SDS011;61787;42.022;23.078;2023-03-23T03:28:32;13.13;;;8.87;;
20014;SDS011;61787;42.022;23.078;2023-03-23T03:29:34;9.50;;;7.40;;
20014;SDS011;61787;42.022;23.078;2023-03-23T03:30:38;10.40;;;7.90;;
20014;SDS011;61787;42.022;23.078;2023-03-23T03:31:40;9.23;;;8.10;;
20014;SDS011;61787;42.022;23.078;2023-03-23T03:32:46;10.27;;;7.50;;
20014;SDS011;61787;42.022;23.078;2023-03-23T03:33:51;11.13;;;8.00;;
20014;SDS011;61787;42.022;23.078;2023-03-23T03:34:51;9.37;;;7.60;;
20014;SDS011;61787;42.022;23.078;2023-03-23T03:35:56;8.70;;;6.97;;
20014;SDS011;61787;42.022;23.078;2023-03-23T03:36:59;9.90;;;7.43;;
20014;SDS011;61787;42.022;23.078;2023-03-23T03:38:04;10.13;;;7.57;;
20014;SDS011;61787;42.022;23.078;2023-03-23T03:39:08;8.43;;;7.53;;
20014;SDS011;61787;42.022;23.078;2023-03-23T03:40:11;10.30;;;6.77;;
20014;SDS011;61787;42.022;23.078;2023-03-23T03:41:14;7.67;;;6.33;;
20014;SDS011;61787;42.022;23.078;2023-03-23T03:42:16;9.53;;;7.03;;
20014;SDS011;61787;42.022;23.078;2023-03-23T03:43:17;11.27;;;6.93;;
20014;SDS011;61787;42.022;23.078;2023-03-23T03:44:18;9.73;;;6.60;;
20014;SDS011;61787;42.022;23.078;2023-03-23T03:45:19;10.93;;;6.50;;
20014;SDS011;61787;42.022;23.078;2023-03-23T03:46:20;10.23;;;6.77;;
20014;SDS011;61787;42.022;23.078;2023-03-23T03:47:20;9.70;;;6.40;;
20014;SDS011;61787;42.022;23.078;2023-03-23T03:48:21;8.43;;;6.43;;
20014;SDS011;61787;42.022;23.078;2023-03-23T03:49:21;11.23;;;7.07;;
20014;SDS011;61787;42.022;23.078;2023-03-23T03:50:22;12.43;;;8.07;;
20014;SDS011;61787;42.022;23.078;2023-03-23T03:51:23;8.93;;;7.57;;
20014;SDS011;61787;42.022;23.078;2023-03-23T03:52:26;10.40;;;8.07;;
20014;SDS011;61787;42.022;23.078;2023-03-23T03:53:27;9.60;;;8.60;;
20014;SDS011;61787;42.022;23.078;2023-03-23T03:54:28;11.47;;;8.13;;
20014;SDS011;61787;42.022;23.078;2023-03-23T03:55:29;13.03;;;9.57;;
20014;SDS011;61787;42.022;23.078;2023-03-23T03:56:35;13.47;;;10.27;;
20014;SDS011;61787;42.022;23.078;2023-03-23T03:57:37;13.83;;;10.10;;
20014;SDS011;61787;42.022;23.078;2023-03-23T03:58:38;13.07;;;9.73;;
20014;SDS011;61787;42.022;23.078;2023-03-23T03:59:39;13.83;;;8.83;;
20014;SDS011;61787;42.022;23.078;2023-03-23T04:00:39;9.60;;;7.67;;
20014;SDS011;61787;42.022;23.078;2023-03-23T04:01:41;12.20;;;8.40;;
20014;SDS011;61787;42.022;23.078;2023-03-23T04:02:46;11.30;;;7.67;;
20014;SDS011;61787;42.022;23.078;2023-03-23T04:03:50;9.37;;;7.70;;
20014;SDS011;61787;42.022;23.078;2023-03-23T04:04:51;10.93;;;7.77;;
20014;SDS011;61787;42.022;23.078;2023-03-23T04:05:54;11.67;;;7.00;;
20014;SDS011;61787;42.022;23.078;2023-03-23T04:06:55;11.00;;;6.83;;
20014;SDS011;61787;42.022;23.078;2023-03-23T04:07:57;10.23;;;7.37;;
20014;SDS011;61787;42.022;23.078;2023-03-23T04:09:02;8.17;;;6.83;;
20014;SDS011;61787;42.022;23.078;2023-03-23T04:10:06;9.40;;;7.13;;
20014;SDS011;61787;42.022;23.078;2023-03-23T04:11:08;10.93;;;7.60;;
20014;SDS011;61787;42.022;23.078;2023-03-23T04:12:10;9.10;;;6.60;;
20014;SDS011;61787;42.022;23.078;2023-03-23T04:13:10;11.93;;;6.63;;
20014;SDS011;61787;42.022;23.078;2023-03-23T04:14:11;8.60;;;6.07;;
20014;SDS011;61787;42.022;23.078;2023-03-23T04:15:11;7.97;;;6.37;;
20014;SDS011;61787;42.022;23.078;2023-03-23T04:16:12;9.27;;;6.53;;
20014;SDS011;61787;42.022;23.078;2023-03-23T04:17:12;8.30;;;6.73;;
20014;SDS011;61787;42.022;23.078;2023-03-23T04:18:15;8.83;;;6.70;;
20014;SDS011;61787;42.022;23.078;2023-03-23T04:19:17;7.87;;;6.23;;
20014;SDS011;61787;42.022;23.078;2023-03-23T04:20:18;8.63;;;5.63;;
20014;SDS011;61787;42.022;23.078;2023-03-23T04:21:19;9.60;;;6.50;;
20014;SDS011;61787;42.022;23.078;2023-03-23T04:22:20;9.40;;;7.00;;
20014;SDS011;61787;42.022;23.078;2023-03-23T04:23:25;7.57;;;6.30;;
20014;SDS011;61787;42.022;23.078;2023-03-23T04:24:27;9.60;;;6.83;;
20014;SDS011;61787;42.022;23.078;2023-03-23T04:25:32;7.80;;;6.67;;
20014;SDS011;61787;42.022;23.078;2023-03-23T04:26:33;8.17;;;6.53;;
20014;SDS011;61787;42.022;23.078;2023-03-23T04:27:33;8.97;;;6.17;;
20014;SDS011;61787;42.022;23.078;2023-03-23T04:28:34;9.27;;;6.97;;
20014;SDS011;61787;42.022;23.078;2023-03-23T04:29:34;8.40;;;6.73;;
20014;SDS011;61787;42.022;23.078;2023-03-23T04:30:35;9.03;;;7.23;;
20014;SDS011;61787;42.022;23.078;2023-03-23T04:31:36;10.27;;;7.20;;
20014;SDS011;61787;42.022;23.078;2023-03-23T04:32:37;9.57;;;6.80;;
20014;SDS011;61787;42.022;23.078;2023-03-23T04:33:40;11.03;;;7.63;;
20014;SDS011;61787;42.022;23.078;2023-03-23T04:34:41;8.80;;;7.17;;
20014;SDS011;61787;42.022;23.078;2023-03-23T04:35:43;9.70;;;7.30;;
20014;SDS011;61787;42.022;23.078;2023-03-23T04:36:45;9.37;;;7.07;;
20014;SDS011;61787;42.022;23.078;2023-03-23T04:37:48;10.77;;;7.67;;
20014;SDS011;61787;42.022;23.078;2023-03-23T04:38:50;11.57;;;8.27;;
20014;SDS011;61787;42.022;23.078;2023-03-23T04:39:51;14.43;;;9.47;;
20014;SDS011;61787;42.022;23.078;2023-03-23T04:41:00;13.27;;;9.40;;
20014;SDS011;61787;42.022;23.078;2023-03-23T04:42:02;12.93;;;10.40;;
20014;SDS011;61787;42.022;23.078;2023-03-23T04:43:02;17.00;;;10.80;;
20014;SDS011;61787;42.022;23.078;2023-03-23T04:44:06;15.93;;;10.80;;
20014;SDS011;61787;42.022;23.078;2023-03-23T04:45:07;16.97;;;11.73;;
20014;SDS011;61787;42.022;23.078;2023-03-23T04:46:08;17.07;;;11.80;;
20014;SDS011;61787;42.022;23.078;2023-03-23T04:47:09;17.60;;;11.77;;
20014;SDS011;61787;42.022;23.078;2023-03-23T04:48:10;14.40;;;10.80;;
20014;SDS011;61787;42.022;23.078;2023-03-23T04:49:11;13.83;;;10.47;;
20014;SDS011;61787;42.022;23.078;2023-03-23T04:50:21;14.80;;;10.53;;
20014;SDS011;61787;42.022;23.078;2023-03-23T04:51:24;16.67;;;10.97;;
20014;SDS011;61787;42.022;23.078;2023-03-23T04:52:28;13.03;;;9.90;;
20014;SDS011;61787;42.022;23.078;2023-03-23T04:53:29;14.70;;;10.17;;
20014;SDS011;61787;42.022;23.078;2023-03-23T04:54:31;14.60;;;9.60;;
20014;SDS011;61787;42.022;23.078;2023-03-23T04:55:32;17.40;;;9.60;;
20014;SDS011;61787;42.022;23.078;2023-03-23T04:56:37;15.00;;;10.83;;
20014;SDS011;61787;42.022;23.078;2023-03-23T04:57:37;16.73;;;11.47;;
20014;SDS011;61787;42.022;23.078;2023-03-23T04:58:38;19.23;;;12.20;;
20014;SDS011;61787;42.022;23.078;2023-03-23T04:59:41;17.97;;;11.70;;
20014;SDS011;61787;42.022;23.078;2023-03-23T05:00:43;20.27;;;13.03;;
20014;SDS011;61787;42.022;23.078;2023-03-23T05:01:50;18.63;;;11.87;;
20014;SDS011;61787;42.022;23.078;2023-03-23T05:02:52;17.87;;;12.13;;
20014;SDS011;61787;42.022;23.078;2023-03-23T05:03:55;15.67;;;11.53;;
20014;SDS011;61787;42.022;23.078;2023-03-23T05:04:56;23.77;;;13.47;;
20014;SDS011;61787;42.022;23.078;2023-03-23T05:06:00;20.53;;;14.17;;
20014;SDS011;61787;42.022;23.078;2023-03-23T05:07:02;22.13;;;13.37;;
20014;SDS011;61787;42.022;23.078;2023-03-23T05:08:03;19.10;;;13.17;;
20014;SDS011;61787;42.022;23.078;2023-03-23T05:09:04;22.80;;;13.90;;
20014;SDS011;61787;42.022;23.078;2023-03-23T05:10:05;25.90;;;13.73;;
20014;SDS011;61787;42.022;23.078;2023-03-23T05:11:08;19.63;;;13.70;;
20014;SDS011;61787;42.022;23.078;2023-03-23T05:12:09;19.83;;;13.33;;
20014;SDS011;61787;42.022;23.078;2023-03-23T05:13:10;21.90;;;12.77;;
20014;SDS011;61787;42.022;23.078;2023-03-23T05:14:10;17.63;;;13.57;;
20014;SDS011;61787;42.022;23.078;2023-03-23T05:15:12;23.83;;;15.30;;
20014;SDS011;61787;42.022;23.078;2023-03-23T05:16:14;19.93;;;13.87;;
20014;SDS011;61787;42.022;23.078;2023-03-23T05:17:14;20.03;;;14.03;;
20014;SDS011;61787;42.022;23.078;2023-03-23T05:18:16;19.27;;;13.07;;
20014;SDS011;61787;42.022;23.078;2023-03-23T05:19:17;18.90;;;13.17;;
20014;SDS011;61787;42.022;23.078;2023-03-23T05:20:18;20.97;;;13.20;;
20014;SDS011;61787;42.022;23.078;2023-03-23T05:21:20;19.70;;;12.57;;
20014;SDS011;61787;42.022;23.078;2023-03-23T05:22:21;15.77;;;11.60;;
20014;SDS011;61787;42.022;23.078;2023-03-23T05:23:21;17.67;;;12.40;;
20014;SDS011;61787;42.022;23.078;2023-03-23T05:24:24;17.03;;;12.20;;
20014;SDS011;61787;42.022;23.078;2023-03-23T05:25:24;19.30;;;12.07;;
20014;SDS011;61787;42.022;23.078;2023-03-23T05:26:26;20.00;;;13.10;;
20014;SDS011;61787;42.022;23.078;2023-03-23T05:27:30;20.73;;;13.47;;
20014;SDS011;61787;42.022;23.078;2023-03-23T05:28:32;23.03;;;14.33;;
20014;SDS011;61787;42.022;23.078;2023-03-23T05:29:33;21.07;;;15.67;;
20014;SDS011;61787;42.022;23.078;2023-03-23T05:30:35;20.37;;;14.33;;
20014;SDS011;61787;42.022;23.078;2023-03-23T05:31:38;20.17;;;14.47;;
20014;SDS011;61787;42.022;23.078;2023-03-23T05:32:40;20.20;;;15.30;;
20014;SDS011;61787;42.022;23.078;2023-03-23T05:33:40;18.53;;;14.30;;
20014;SDS011;61787;42.022;23.078;2023-03-23T05:34:41;20.60;;;15.00;;
20014;SDS011;61787;42.022;23.078;2023-03-23T05:35:42;16.87;;;13.20;;
20014;SDS011;61787;42.022;23.078;2023-03-23T05:36:43;18.77;;;14.07;;
20014;SDS011;61787;42.022;23.078;2023-03-23T05:37:44;17.33;;;14.07;;
20014;SDS011;61787;42.022;23.078;2023-03-23T05:38:45;15.47;;;12.57;;
20014;SDS011;61787;42.022;23.078;2023-03-23T05:39:49;19.00;;;14.57;;
20014;SDS011;61787;42.022;23.078;2023-03-23T05:40:53;17.30;;;13.17;;
20014;SDS011;61787;42.022;23.078;2023-03-23T05:41:54;17.50;;;14.70;;
20014;SDS011;61787;42.022;23.078;2023-03-23T05:42:55;18.07;;;13.83;;
20014;SDS011;61787;42.022;23.078;2023-03-23T05:43:58;18.97;;;14.73;;
20014;SDS011;61787;42.022;23.078;2023-03-23T05:44:59;20.03;;;14.90;;
20014;SDS011;61787;42.022;23.078;2023-03-23T05:46:00;21.57;;;15.30;;
20014;SDS011;61787;42.022;23.078;2023-03-23T05:47:01;20.17;;;14.47;;
20014;SDS011;61787;42.022;23.078;2023-03-23T05:48:01;17.77;;;13.17;;
20014;SDS011;61787;42.022;23.078;2023-03-23T05:49:02;20.40;;;14.37;;
20014;SDS011;61787;42.022;23.078;2023-03-23T05:50:03;21.00;;;13.70;;
20014;SDS011;61787;42.022;23.078;2023-03-23T05:51:06;22.07;;;13.73;;
20014;SDS011;61787;42.022;23.078;2023-03-23T05:52:07;18.53;;;13.53;;
20014;SDS011;61787;42.022;23.078;2023-03-23T05:53:08;20.30;;;14.67;;
20014;SDS011;61787;42.022;23.078;2023-03-23T05:54:08;19.43;;;14.17;;
20014;SDS011;61787;42.022;23.078;2023-03-23T05:55:10;20.57;;;14.00;;
20014;SDS011;61787;42.022;23.078;2023-03-23T05:56:11;19.73;;;14.13;;
20014;SDS011;61787;42.022;23.078;2023-03-23T05:57:13;19.57;;;14.17;;
20014;SDS011;61787;42.022;23.078;2023-03-23T05:58:13;22.03;;;13.87;;
20014;SDS011;61787;42.022;23.078;2023-03-23T05:59:14;18.93;;;14.00;;
20014;SDS011;61787;42.022;23.078;2023-03-23T06:00:15;18.47;;;13.20;;
20014;SDS011;61787;42.022;23.078;2023-03-23T06:01:20;19.87;;;12.30;;
20014;SDS011;61787;42.022;23.078;2023-03-23T06:02:20;23.30;;;13.43;;
20014;SDS011;61787;42.022;23.078;2023-03-23T06:03:23;20.53;;;13.87;;
20014;SDS011;61787;42.022;23.078;2023-03-23T06:04:23;16.60;;;13.17;;
20014;SDS011;61787;42.022;23.078;2023-03-23T06:05:24;17.53;;;12.70;;
20014;SDS011;61787;42.022;23.078;2023-03-23T06:06:26;16.67;;;12.40;;
20014;SDS011;61787;42.022;23.078;2023-03-23T06:07:26;15.37;;;12.00;;
20014;SDS011;61787;42.022;23.078;2023-03-23T06:08:27;15.23;;;11.73;;
20014;SDS011;61787;42.022;23.078;2023-03-23T06:09:28;14.63;;;11.10;;
20014;SDS011;61787;42.022;23.078;2023-03-23T06:10:29;19.10;;;12.53;;
20014;SDS011;61787;42.022;23.078;2023-03-23T06:11:30;24.57;;;14.00;;
20014;SDS011;61787;42.022;23.078;2023-03-23T06:12:31;27.07;;;15.43;;
20014;SDS011;61787;42.022;23.078;2023-03-23T06:13:31;23.20;;;15.43;;
20014;SDS011;61787;42.022;23.078;2023-03-23T06:14:32;26.00;;;15.47;;
20014;SDS011;61787;42.022;23.078;2023-03-23T06:15:33;23.27;;;15.40;;
20014;SDS011;61787;42.022;23.078;2023-03-23T06:16:33;22.70;;;15.60;;
20014;SDS011;61787;42.022;23.078;2023-03-23T06:17:34;20.33;;;15.40;;
20014;SDS011;61787;42.022;23.078;2023-03-23T06:18:36;19.70;;;14.70;;
20014;SDS011;61787;42.022;23.078;2023-03-23T06:19:36;21.30;;;13.70;;
20014;SDS011;61787;42.022;23.078;2023-03-23T06:20:37;20.13;;;13.43;;
20014;SDS011;61787;42.022;23.078;2023-03-23T06:21:38;19.70;;;13.70;;
20014;SDS011;61787;42.022;23.078;2023-03-23T06:22:39;21.13;;;14.03;;
20014;SDS011;61787;42.022;23.078;2023-03-23T06:23:40;18.37;;;12.13;;
20014;SDS011;61787;42.022;23.078;2023-03-23T06:24:40;18.13;;;12.80;;
20014;SDS011;61787;42.022;23.078;2023-03-23T06:25:41;15.20;;;11.47;;
20014;SDS011;61787;42.022;23.078;2023-03-23T06:26:42;17.63;;;12.67;;
20014;SDS011;61787;42.022;23.078;2023-03-23T06:27:44;16.43;;;12.40;;
20014;SDS011;61787;42.022;23.078;2023-03-23T06:28:45;18.53;;;12.57;;
20014;SDS011;61787;42.022;23.078;2023-03-23T06:29:46;18.17;;;12.70;;
20014;SDS011;61787;42.022;23.078;2023-03-23T06:30:46;18.83;;;13.10;;